Time;durP1;ratioP1;P1;durP2;ratioP2;P2;SDS_P1;SDS_P2;PMS_P1;PMS_P2;Temp;Humidity;BMP_temperature;BMP_pressure;BME280_temperature;BME280_humidity;BME280_pressure;Samples;Min_cycle;Max_cycle;Signal;HPM_P1;HPM_P2
2022/03/26 00:02:19;;;;;;;3.93;3.60;;;;;;;18.48;44.29;98477.13;4897445;29;20229;-85
2022/03/26 00:04:46;;;;;;;4.60;4.00;;;;;;;16.13;43.94;98066.97;4913177;29;20218;-86
2022/03/26 00:07:13;;;;;;;4.37;3.97;;;;;;;15.79;44.15;98025.25;4897448;29;20225;-87
2022/03/26 00:09:40;;;;;;;4.57;3.70;;;;;;;14.83;43.89;97859.78;4914819;29;20214;-86
2022/03/26 00:12:08;;;;;;;4.43;4.03;;;;;;;17.64;44.24;98353.53;4903352;29;20260;-86
2022/03/26 00:14:34;;;;;;;4.57;4.07;;;;;;;15.28;44.07;97925.81;4931679;29;20481;-86
2022/03/26 00:17:01;;;;;;;4.10;3.57;;;;;;;13.98;44.14;97699.44;4931522;29;20245;-86
2022/03/26 00:19:28;;;;;;;4.37;3.97;;;;;;;14.83;44.00;97847.13;4931455;29;20209;-88
2022/03/26 00:21:55;;;;;;;5.17;4.23;;;;;;;17.28;43.79;98289.50;4915900;29;20288;-86
2022/03/26 00:24:22;;;;;;;3.97;3.57;;;;;;;15.40;44.02;97946.00;4884328;29;20551;-87
2022/03/26 00:26:49;;;;;;;4.80;3.80;;;;;;;14.10;44.40;97742.31;4928418;29;20261;-86
2022/03/26 00:29:15;;;;;;;5.03;3.83;;;;;;;17.70;44.20;98361.50;4896290;29;20245;-87
2022/03/26 00:31:42;;;;;;;4.00;3.53;;;;;;;17.70;44.09;98351.34;4896555;29;20747;-86
2022/03/26 00:34:09;;;;;;;4.60;4.20;;;;;;;17.91;43.40;98400.00;4898722;29;20265;-85
2022/03/26 00:36:36;;;;;;;4.30;3.90;;;;;;;16.71;43.88;98198.16;4896715;29;20742;-86
2022/03/26 00:39:03;;;;;;;4.23;3.83;;;;;;;16.83;44.28;98203.06;4912421;29;20238;-86
2022/03/26 00:41:30;;;;;;;3.97;3.57;;;;;;;16.34;44.06;98135.81;4930696;29;20243;-86
2022/03/26 00:43:59;;;;;;;4.03;3.63;;;;;;;17.37;44.32;98308.72;4899981;29;20233;-87
2022/03/26 00:46:25;;;;;;;4.50;4.10;;;;;;;16.76;43.97;98196.75;4915781;29;20633;-87
2022/03/26 00:48:56;;;;;;;4.40;4.00;;;;;;;16.72;44.48;98189.72;4927139;29;20352;-86
2022/03/26 00:51:22;;;;;;;5.10;3.93;;;;;;;16.50;44.33;98188.38;4913932;29;20206;-86
2022/03/26 00:53:49;;;;;;;4.80;4.40;;;;;;;15.96;44.13;98054.97;4905525;29;20252;-86
2022/03/26 00:56:18;;;;;;;4.20;3.80;;;;;;;15.63;44.34;97993.84;4912097;29;20264;-85
2022/03/26 00:58:45;;;;;;;4.77;3.70;;;;;;;16.49;44.11;98140.97;4895855;29;20716;-86
2022/03/26 01:01:12;;;;;;;4.80;4.30;;;;;;;17.24;44.13;98269.81;4896639;29;20216;-86
2022/03/26 01:03:39;;;;;;;5.13;4.10;;;;;;;17.19;44.08;98269.53;4897072;29;20209;-86
2022/03/26 01:06:05;;;;;;;5.23;4.30;;;;;;;17.45;44.46;98317.69;4911291;29;20691;-85
2022/03/26 01:08:32;;;;;;;4.43;4.03;;;;;;;18.29;44.21;98453.94;4927694;29;20707;-87
2022/03/26 01:10:59;;;;;;;4.17;3.80;;;;;;;17.11;44.08;98245.38;4895805;29;20205;-86
2022/03/26 01:13:26;;;;;;;4.07;3.70;;;;;;;16.85;44.09;98220.16;4880826;29;20586;-87
2022/03/26 01:15:53;;;;;;;4.37;3.97;;;;;;;18.27;43.87;98477.53;4907492;29;20782;-86
2022/03/26 01:18:22;;;;;;;4.40;3.70;;;;;;;15.91;44.13;98038.63;4930297;29;20299;-86
2022/03/26 01:20:51;;;;;;;5.03;4.10;;;;;;;17.89;44.11;98391.41;4914987;29;20272;-87
2022/03/26 01:23:19;;;;;;;4.20;3.80;;;;;;;17.83;44.25;98388.53;4911589;29;20638;-87
2022/03/26 01:26:00;;;;;;;5.13;4.27;;;;;;;16.02;44.23;98140.66;4897715;29;20190;-93
2022/03/26 01:28:30;;;;;;;4.93;4.40;;;;;;;12.67;44.11;97486.75;4892556;29;20246;-92
2022/03/26 01:30:59;;;;;;;5.67;4.23;;;;;;;12.54;43.73;97509.47;4900641;29;20236;-93
2022/03/26 01:33:26;;;;;;;4.30;3.90;;;;;;;14.87;44.33;97919.06;4870695;29;20191;-93
2022/03/26 01:35:54;;;;;;;4.57;4.17;;;;;;;16.53;44.23;98211.41;4880639;29;20297;-92
2022/03/26 01:38:20;;;;;;;4.63;4.23;;;;;;;14.92;44.36;97948.06;4888796;29;20202;-92
2022/03/26 01:40:48;;;;;;;4.07;3.73;;;;;;;15.31;44.17;98016.31;4903394;29;20186;-93
2022/03/26 01:43:14;;;;;;;4.33;3.93;;;;;;;13.15;44.23;97597.47;4888849;29;20190;-92
2022/03/26 01:45:44;;;;;;;4.10;3.70;;;;;;;17.39;44.18;98364.69;4886060;29;20214;-86
2022/03/26 01:48:11;;;;;;;4.80;3.80;;;;;;;16.96;44.34;98247.00;4866082;29;20325;-86
2022/03/26 01:50:40;;;;;;;4.63;4.23;;;;;;;16.98;43.96;98242.03;4856208;29;20215;-87
2022/03/26 01:53:07;;;;;;;4.20;3.80;;;;;;;18.27;44.28;98467.38;4872425;29;20723;-86
2022/03/26 01:55:34;;;;;;;3.80;3.50;;;;;;;17.50;44.11;98354.41;4863393;29;20269;-86
2022/03/26 01:58:00;;;;;;;4.77;4.10;;;;;;;16.68;43.90;98200.50;4899060;29;20257;-86
2022/03/26 02:00:28;;;;;;;4.47;4.07;;;;;;;17.32;44.29;98296.53;4897420;29;20209;-85
2022/03/26 02:02:56;;;;;;;5.03;4.23;;;;;;;15.53;43.83;97981.38;4906667;29;20305;-86
2022/03/26 02:05:26;;;;;;;4.33;3.93;;;;;;;17.83;44.28;98412.25;4909608;29;20233;-87
2022/03/26 02:07:53;;;;;;;5.77;4.40;;;;;;;17.50;44.53;98325.59;4894589;29;20230;-87
2022/03/26 02:10:23;;;;;;;4.37;3.97;;;;;;;18.53;44.11;98497.75;4911080;29;20201;-87
2022/03/26 02:12:50;;;;;;;4.27;3.87;;;;;;;17.43;44.05;98305.63;4927021;29;20214;-86
2022/03/26 02:15:16;;;;;;;4.20;3.87;;;;;;;16.40;43.98;98118.44;4907989;29;20221;-87
2022/03/26 02:17:43;;;;;;;4.47;4.07;;;;;;;15.07;43.93;97890.78;4911069;29;20249;-86
2022/03/26 02:20:11;;;;;;;4.43;4.03;;;;;;;14.72;43.70;97867.53;4910270;29;20739;-87
2022/03/26 02:22:38;;;;;;;4.63;4.23;;;;;;;13.88;44.26;97684.53;4895429;29;20213;-87
2022/03/26 02:25:06;;;;;;;4.70;4.30;;;;;;;17.74;44.32;98396.47;4895686;29;20201;-87
2022/03/26 02:27:33;;;;;;;4.60;4.20;;;;;;;16.69;44.47;98189.56;4894820;29;20253;-87
2022/03/26 02:30:03;;;;;;;4.93;4.40;;;;;;;16.34;44.03;98129.09;4911266;29;20237;-87
2022/03/26 02:32:33;;;;;;;4.40;4.00;;;;;;;16.63;43.89;98199.34;4895476;29;20205;-86
2022/03/26 02:34:59;;;;;;;4.70;4.30;;;;;;;13.43;43.71;97637.88;4901896;29;20213;-87
2022/03/26 02:37:34;;;;;;;5.50;4.80;;;;;;;12.63;43.54;97478.91;4930598;29;20234;-92
2022/03/26 02:40:04;;;;;;;4.50;4.07;;;;;;;11.19;44.19;97217.81;4938940;29;20189;-92
2022/03/26 02:42:31;;;;;;;4.63;4.23;;;;;;;17.30;43.94;98278.69;4923574;29;20255;-92
2022/03/26 02:44:58;;;;;;;5.07;4.40;;;;;;;14.97;44.35;97860.63;4933816;29;20209;-93
2022/03/26 02:47:25;;;;;;;4.63;4.13;;;;;;;17.10;44.57;98233.47;4942067;29;20229;-92
2022/03/26 02:52:27;;;;;;;5.00;4.50;;;;;;;15.67;44.06;98028.69;4311374;26;20199;-91
2022/03/26 02:54:54;;;;;;;5.03;4.53;;;;;;;12.85;44.22;97576.16;4971816;28;20247;-92
2022/03/26 02:57:20;;;;;;;3.83;3.53;;;;;;;14.83;44.02;97846.28;4926227;29;20197;-92
2022/03/26 02:59:47;;;;;;;4.80;4.30;;;;;;;13.44;44.09;97644.69;4926771;29;20193;-92
2022/03/26 03:02:14;;;;;;;4.67;3.77;;;;;;;13.06;44.09;97585.91;4941985;29;20216;-92
2022/03/26 03:04:41;;;;;;;5.20;4.20;;;;;;;14.34;43.88;97759.00;4941949;29;20197;-90
2022/03/26 03:07:08;;;;;;;4.60;4.20;;;;;;;12.44;43.96;97458.38;4926429;29;20212;-91
2022/03/26 03:09:34;;;;;;;4.63;4.23;;;;;;;14.39;44.01;97825.88;4980766;23;20216;-92
2022/03/26 03:12:01;;;;;;;4.73;4.33;;;;;;;14.51;43.87;97826.63;4966342;23;20267;-91
2022/03/26 03:14:28;;;;;;;4.53;4.13;;;;;;;18.63;43.99;98484.72;4948935;28;20249;-90
2022/03/26 03:16:57;;;;;;;4.73;4.27;;;;;;;14.04;43.74;97727.63;4964004;28;20247;-91
2022/03/26 03:19:24;;;;;;;4.80;4.30;;;;;;;13.85;43.69;97691.03;4945135;29;20205;-93
2022/03/26 03:21:59;;;;;;;4.43;4.03;;;;;;;14.68;44.01;97830.19;4945382;29;20216;-91
2022/03/26 03:24:26;;;;;;;5.33;4.60;;;;;;;11.95;43.97;97320.03;4914539;29;20244;-92
2022/03/26 03:26:53;;;;;;;4.50;4.10;;;;;;;13.93;43.62;97720.16;4914416;29;20185;-91
2022/03/26 03:29:20;;;;;;;4.60;4.20;;;;;;;16.75;44.37;98214.44;4959145;23;20220;-86
2022/03/26 03:31:48;;;;;;;5.17;4.60;;;;;;;13.74;43.56;97655.00;4921991;29;20201;-86
2022/03/26 03:34:28;;;;;;;5.00;4.50;;;;;;;9.58;43.68;96870.72;4929572;29;20228;-86
2022/03/26 03:36:57;;;;;;;5.27;4.77;;;;;;;13.85;43.69;97651.50;4955530;29;20617;-86
2022/03/26 03:39:27;;;;;;;5.20;4.70;;;;;;;11.16;43.53;97265.38;4938468;29;20267;-86
2022/03/26 03:42:14;;;;;;;4.63;4.23;;;;;;;18.88;43.57;98472.53;4903140;29;20208;-87
2022/03/26 03:44:41;;;;;;;4.83;4.33;;;;;;;18.90;43.72;98476.94;4933112;29;20195;-85
2022/03/26 03:47:10;;;;;;;6.23;4.43;;;;;;;17.04;43.74;98150.97;4912148;29;20208;-87
2022/03/26 03:49:38;;;;;;;5.20;4.70;;;;;;;11.49;43.29;97303.63;4900596;29;20614;-88
2022/03/26 03:52:05;;;;;;;5.33;4.67;;;;;;;9.96;43.17;96971.91;4897018;29;20202;-86
2022/03/26 03:54:39;;;;;;;4.50;4.10;;;;;;;11.32;42.93;97188.50;4913265;29;20209;-78
2022/03/26 03:57:07;;;;;;;4.70;4.30;;;;;;;12.89;43.25;97424.28;4925378;29;20212;-78
2022/03/26 03:59:34;;;;;;;5.10;4.60;;;;;;;13.98;43.39;97616.06;4954236;28;20718;-78
2022/03/26 04:02:01;;;;;;;4.77;4.33;;;;;;;16.01;43.31;97971.59;4953771;29;20209;-78
2022/03/26 04:04:28;;;;;;;5.17;4.67;;;;;;;19.00;43.38;98504.66;4921134;29;20212;-78
2022/03/26 04:06:55;;;;;;;5.07;4.03;;;;;;;15.85;43.07;97968.97;4947705;29;20201;-78
2022/03/26 04:09:23;;;;;;;6.13;4.63;;;;;;;13.87;43.22;97603.59;4918058;29;20221;-78
2022/03/26 04:11:50;;;;;;;5.10;4.60;;;;;;;12.34;43.79;97423.28;4917978;29;20205;-77
2022/03/26 04:14:18;;;;;;;5.07;4.57;;;;;;;17.11;43.43;98203.88;4912770;29;20256;-77
2022/03/26 04:16:47;;;;;;;4.97;4.57;;;;;;;14.65;43.69;97735.63;4937241;29;20400;-78
2022/03/26 04:19:19;;;;;;;4.57;4.17;;;;;;;19.03;43.21;98489.53;4934612;29;20235;-79
2022/03/26 04:21:46;;;;;;;5.50;5.00;;;;;;;19.03;43.06;98492.09;4901177;29;20296;-76
2022/03/26 04:24:13;;;;;;;4.97;4.50;;;;;;;19.04;43.29;98491.28;4944525;29;20219;-77
2022/03/26 04:26:40;;;;;;;5.07;4.57;;;;;;;19.04;43.13;98492.97;4905395;29;20291;-78
2022/03/26 04:29:07;;;;;;;5.43;4.93;;;;;;;19.04;43.16;98487.88;4942167;28;20232;-77
2022/03/26 04:31:36;;;;;;;5.03;4.53;;;;;;;19.03;43.16;98493.75;4934636;29;20205;-78
2022/03/26 04:34:06;;;;;;;4.80;4.40;;;;;;;16.96;43.28;98158.16;4906797;29;20279;-78
2022/03/26 04:36:33;;;;;;;4.53;4.13;;;;;;;19.01;43.25;98503.84;4917284;29;20331;-78
2022/03/26 04:39:00;;;;;;;5.27;4.77;;;;;;;18.48;43.33;98408.41;4927654;29;20227;-77
2022/03/26 04:41:28;;;;;;;5.77;5.17;;;;;;;18.27;43.21;98370.69;4920060;29;20243;-78
2022/03/26 04:43:55;;;;;;;5.00;4.50;;;;;;;17.68;43.42;98278.34;4908685;29;20215;-77
2022/03/26 04:46:21;;;;;;;5.23;4.73;;;;;;;19.00;43.28;98506.31;4885135;29;20305;-77
2022/03/26 04:48:48;;;;;;;5.40;4.90;;;;;;;18.99;43.39;98512.22;4896260;29;20595;-77
2022/03/26 04:51:14;;;;;;;5.07;4.47;;;;;;;18.98;43.28;98506.25;4932968;29;20236;-77
2022/03/26 04:53:41;;;;;;;4.70;4.30;;;;;;;17.01;43.33;98174.53;4931828;29;20213;-78
2022/03/26 04:56:08;;;;;;;5.10;4.60;;;;;;;18.98;43.45;98507.94;4893829;29;20249;-78
2022/03/26 04:58:34;;;;;;;4.90;4.43;;;;;;;18.09;43.12;98363.75;4931386;29;20220;-77
2022/03/26 05:01:01;;;;;;;5.30;4.80;;;;;;;17.87;43.32;98326.88;4921408;29;20205;-78
2022/03/26 05:03:28;;;;;;;4.87;4.47;;;;;;;18.64;43.26;98466.09;4916727;29;20209;-78
2022/03/26 05:05:55;;;;;;;5.20;4.70;;;;;;;18.13;43.64;98375.88;4920888;29;20256;-78
2022/03/26 05:08:21;;;;;;;5.20;4.70;;;;;;;18.96;43.21;98524.78;4917868;29;20229;-78
2022/03/26 05:10:48;;;;;;;5.20;4.63;;;;;;;18.94;43.32;98524.72;4938808;29;20239;-78
2022/03/26 05:13:15;;;;;;;7.13;5.70;;;;;;;18.11;43.17;98400.34;4927929;29;20572;-79
2022/03/26 05:15:41;;;;;;;5.90;5.30;;;;;;;18.63;43.59;98482.19;4901792;29;20197;-78
2022/03/26 05:18:08;;;;;;;6.10;5.23;;;;;;;18.61;43.75;98482.09;4901325;29;20235;-76
2022/03/26 05:20:35;;;;;;;6.10;5.33;;;;;;;18.65;43.64;98480.63;4885742;29;20276;-79
2022/03/26 05:23:02;;;;;;;6.83;5.00;;;;;;;18.92;43.48;98528.84;4927153;29;20243;-78
2022/03/26 05:25:29;;;;;;;7.30;5.37;;;;;;;18.11;43.67;98394.38;4933257;29;20239;-78
2022/03/26 05:27:56;;;;;;;5.27;4.77;;;;;;;18.27;43.64;98425.00;4900272;29;20274;-78
2022/03/26 05:30:24;;;;;;;5.77;5.17;;;;;;;17.72;43.34;98342.16;4885280;29;20283;-78
2022/03/26 05:32:51;;;;;;;5.30;4.80;;;;;;;18.90;43.77;98537.19;4896025;29;20211;-78
2022/03/26 05:35:18;;;;;;;5.67;5.13;;;;;;;18.90;43.77;98533.00;4901051;29;20643;-78
2022/03/26 05:37:49;;;;;;;5.90;5.30;;;;;;;16.35;43.67;98105.47;4943977;28;20609;-78
2022/03/26 05:40:17;;;;;;;6.53;5.57;;;;;;;18.05;43.85;98400.00;4915060;29;20292;-78
2022/03/26 05:42:47;;;;;;;5.97;5.40;;;;;;;18.88;43.91;98544.75;4916049;29;20221;-78
2022/03/26 05:45:14;;;;;;;5.57;4.93;;;;;;;18.88;43.91;98536.22;4933751;29;20682;-78
2022/03/26 05:47:41;;;;;;;6.43;5.80;;;;;;;17.77;43.74;98357.66;4952034;28;20649;-77
2022/03/26 05:50:09;;;;;;;5.60;5.00;;;;;;;18.88;43.79;98552.38;4944746;29;20613;-78
2022/03/26 05:52:36;;;;;;;5.53;5.03;;;;;;;16.91;43.90;98225.56;4929663;29;20634;-78
2022/03/26 05:55:04;;;;;;;5.77;5.20;;;;;;;18.87;43.81;98554.84;4898356;29;20216;-78
2022/03/26 05:57:30;;;;;;;5.30;4.80;;;;;;;17.96;43.89;98402.03;4913712;29;20281;-78
2022/03/26 05:59:57;;;;;;;5.50;4.97;;;;;;;17.33;44.12;98305.91;4912604;29;20292;-77
2022/03/26 06:02:23;;;;;;;5.57;5.07;;;;;;;18.01;43.67;98427.72;4912113;29;20282;-78
2022/03/26 06:04:50;;;;;;;5.63;5.07;;;;;;;18.86;43.80;98573.47;4896973;29;20269;-78
2022/03/26 06:07:17;;;;;;;5.63;5.03;;;;;;;18.37;44.32;98520.53;4925944;29;20280;-78
2022/03/26 06:09:44;;;;;;;6.13;5.53;;;;;;;18.55;43.87;98519.94;4894009;29;20241;-78
2022/03/26 06:12:10;;;;;;;5.20;4.70;;;;;;;18.85;43.94;98580.22;4911668;29;20287;-79
2022/03/26 06:14:37;;;;;;;6.23;5.30;;;;;;;17.96;43.88;98430.00;4918548;29;20224;-78
2022/03/26 06:17:06;;;;;;;5.60;5.00;;;;;;;18.52;44.09;98527.41;4934864;29;20302;-79
2022/03/26 06:19:33;;;;;;;6.30;5.53;;;;;;;18.83;43.99;98584.34;4893195;29;20240;-75
2022/03/26 06:22:00;;;;;;;5.90;5.30;;;;;;;18.04;44.17;98453.31;4931501;29;20642;-79
2022/03/26 06:24:27;;;;;;;6.10;4.97;;;;;;;18.83;44.01;98588.59;4899086;29;20205;-78
2022/03/26 06:26:53;;;;;;;5.90;5.30;;;;;;;18.83;43.99;98588.59;4913304;29;20739;-78
2022/03/26 06:29:20;;;;;;;7.70;5.00;;;;;;;18.82;43.77;98585.16;4923564;29;20344;-78
2022/03/26 06:31:47;;;;;;;5.03;4.53;;;;;;;18.52;43.89;98531.59;4924411;29;20251;-78
2022/03/26 06:34:14;;;;;;;5.33;4.83;;;;;;;17.81;44.04;98413.88;4905643;29;20208;-80
2022/03/26 06:36:41;;;;;;;5.97;5.37;;;;;;;16.62;44.07;98210.28;4883414;29;20241;-80
2022/03/26 06:39:07;;;;;;;9.10;6.73;;;;;;;18.57;43.42;98560.75;4900268;29;20232;-80
2022/03/26 06:41:40;;;;;;;11.47;9.73;;;;;;;18.20;42.42;98489.91;4903200;29;20201;-79
2022/03/26 06:44:08;;;;;;;17.50;12.33;;;;;;;18.80;41.66;98588.41;4896802;29;20245;-80
2022/03/26 06:46:35;;;;;;;16.47;13.67;;;;;;;17.31;40.68;98330.34;4935170;29;20255;-79
2022/03/26 06:49:02;;;;;;;19.73;15.07;;;;;;;17.91;40.90;98445.75;4921571;29;20228;-80
2022/03/26 06:51:29;;;;;;;23.97;17.13;;;;;;;18.10;39.53;98480.00;4922677;29;20208;-80
2022/03/26 06:53:55;;;;;;;21.80;16.93;;;;;;;18.46;38.60;98544.00;4921940;29;20204;-79
2022/03/26 06:56:22;;;;;;;22.73;18.30;;;;;;;17.82;38.37;98430.84;4918213;29;20244;-80
2022/03/26 06:58:49;;;;;;;27.63;18.57;;;;;;;18.74;38.73;98601.66;4894814;29;20228;-81
2022/03/26 07:01:15;;;;;;;26.03;18.13;;;;;;;17.69;39.00;98414.81;4901850;29;20229;-80
2022/03/26 07:03:42;;;;;;;24.13;19.13;;;;;;;18.14;38.43;98501.38;4901128;29;20323;-82
2022/03/26 07:06:09;;;;;;;25.73;19.13;;;;;;;16.86;38.36;98281.94;4884052;29;20213;-80
2022/03/26 07:08:36;;;;;;;26.70;20.10;;;;;;;18.70;38.77;98603.94;4917177;29;20256;-81
2022/03/26 07:11:02;;;;;;;23.77;17.47;;;;;;;17.90;39.50;98469.44;4917523;29;20299;-81
2022/03/26 07:13:29;;;;;;;27.00;17.13;;;;;;;17.25;40.25;98350.28;4917214;29;20232;-80
2022/03/26 07:15:56;;;;;;;22.53;17.13;;;;;;;17.87;40.64;98460.00;4929645;29;20231;-80
2022/03/26 07:18:22;;;;;;;30.37;18.80;;;;;;;18.46;38.58;98569.44;4916106;29;20668;-80
2022/03/26 07:20:51;;;;;;;30.13;21.20;;;;;;;17.38;38.12;98389.22;4896287;29;20235;-80
2022/03/26 07:23:18;;;;;;;26.20;20.47;;;;;;;18.61;39.04;98608.50;4916630;29;20209;-79
2022/03/26 07:25:44;;;;;;;25.13;19.20;;;;;;;17.57;39.84;98421.72;4913086;29;20356;-80
2022/03/26 07:28:11;;;;;;;35.03;21.13;;;;;;;18.09;38.95;98520.63;4866824;29;20324;-80
2022/03/26 07:30:37;;;;;;;30.40;22.40;;;;;;;18.57;38.14;98601.50;4901772;29;20248;-79
2022/03/26 07:33:04;;;;;;;33.07;22.67;;;;;;;17.78;36.73;98474.72;4897817;29;20213;-78
2022/03/26 07:35:31;;;;;;;32.47;22.27;;;;;;;18.18;36.54;98570.34;4894272;29;20229;-80
2022/03/26 07:37:58;;;;;;;32.27;22.40;;;;;;;15.95;36.79;98162.22;4910619;29;20232;-80
2022/03/26 07:40:24;;;;;;;31.60;22.63;;;;;;;18.05;36.65;98536.47;4898710;29;20229;-80
2022/03/26 07:42:51;;;;;;;35.10;22.40;;;;;;;17.96;36.22;98526.66;4868537;29;20288;-78
2022/03/26 07:45:18;;;;;;;33.43;22.83;;;;;;;18.01;36.26;98537.09;4913522;29;20233;-77
2022/03/26 07:47:44;;;;;;;34.63;23.13;;;;;;;18.06;36.35;98556.91;4901065;29;20308;-81
2022/03/26 07:50:11;;;;;;;34.73;24.93;;;;;;;18.39;36.42;98616.59;4916691;29;20260;-78
2022/03/26 07:52:38;;;;;;;37.23;21.77;;;;;;;18.11;37.26;98572.44;4917059;29;20626;-78
2022/03/26 07:55:05;;;;;;;31.73;22.30;;;;;;;17.82;37.75;98524.94;4901947;29;20205;-78
2022/03/26 07:57:32;;;;;;;28.27;21.83;;;;;;;17.68;38.56;98502.88;4915752;29;20256;-79
2022/03/26 07:59:59;;;;;;;27.60;20.13;;;;;;;17.87;38.67;98537.94;4900596;29;20248;-80
2022/03/26 08:02:25;;;;;;;29.80;20.77;;;;;;;16.78;39.57;98364.38;4900011;29;20763;-83
2022/03/26 08:04:52;;;;;;;28.20;21.73;;;;;;;15.50;40.02;98131.53;4906076;29;20235;-82
2022/03/26 08:07:21;;;;;;;27.60;20.50;;;;;;;16.07;40.68;98230.53;4925818;29;20730;-81
2022/03/26 08:09:48;;;;;;;28.63;19.20;;;;;;;17.48;40.89;98477.09;4902122;29;20216;-82
2022/03/26 08:12:15;;;;;;;25.10;19.20;;;;;;;18.35;40.81;98641.72;4874780;29;20746;-81
2022/03/26 08:14:41;;;;;;;25.90;18.63;;;;;;;17.89;40.85;98551.63;4899550;29;20864;-81
2022/03/26 08:17:09;;;;;;;28.17;20.70;;;;;;;17.85;40.43;98568.34;4867540;29;20869;-80
2022/03/26 08:19:36;;;;;;;29.87;19.83;;;;;;;17.84;41.14;98542.84;4890153;29;20268;-79
2022/03/26 08:22:03;;;;;;;23.13;18.27;;;;;;;17.38;41.72;98462.03;4885972;29;20288;-80
2022/03/26 08:24:30;;;;;;;22.47;17.43;;;;;;;17.63;42.00;98511.03;4877493;29;20205;-80
2022/03/26 08:26:56;;;;;;;28.37;18.77;;;;;;;18.01;41.79;98596.47;4892188;29;20735;-80
2022/03/26 08:29:23;;;;;;;26.40;18.07;;;;;;;18.36;41.98;98676.56;4889683;29;20296;-80
2022/03/26 08:31:50;;;;;;;22.97;17.70;;;;;;;17.39;42.59;98466.34;4900152;29;20248;-80
2022/03/26 08:34:18;;;;;;;27.33;17.77;;;;;;;17.44;42.21;98487.88;4900328;29;20297;-81
2022/03/26 08:36:45;;;;;;;24.27;17.63;;;;;;;17.09;42.52;98411.13;4905617;29;20229;-80
2022/03/26 08:39:12;;;;;;;21.53;17.07;;;;;;;18.08;42.70;98588.41;4903675;29;20261;-80
2022/03/26 08:41:38;;;;;;;23.70;17.07;;;;;;;18.02;42.87;98580.41;4879630;29;20635;-79
2022/03/26 08:44:05;;;;;;;21.97;17.30;;;;;;;18.16;42.69;98604.13;4894704;29;20284;-79
2022/03/26 08:46:34;;;;;;;19.50;16.03;;;;;;;17.81;43.01;98541.00;4907762;29;20241;-80
2022/03/26 08:49:01;;;;;;;23.07;17.13;;;;;;;16.67;42.68;98345.94;4896315;29;20608;-81
2022/03/26 08:51:27;;;;;;;19.70;16.37;;;;;;;16.94;43.20;98383.16;4903935;29;20641;-81
2022/03/26 08:53:54;;;;;;;21.50;16.57;;;;;;;17.86;42.96;98543.81;4915302;29;20252;-81
2022/03/26 08:56:21;;;;;;;23.13;16.57;;;;;;;13.62;43.05;97804.91;4884816;29;20221;-81
2022/03/26 08:58:47;;;;;;;23.57;16.53;;;;;;;17.31;43.41;98462.44;4884788;29;20264;-81
2022/03/26 09:01:14;;;;;;;20.77;15.77;;;;;;;17.39;43.65;98462.13;4899593;29;20295;-81
2022/03/26 09:03:43;;;;;;;21.70;15.93;;;;;;;15.55;43.32;98134.34;4892835;29;20995;-81
2022/03/26 09:06:11;;;;;;;19.83;15.80;;;;;;;17.41;43.03;98473.25;4909608;29;20233;-81
2022/03/26 09:08:38;;;;;;;21.47;14.87;;;;;;;17.22;43.56;98423.78;4911721;29;20260;-80
2022/03/26 09:11:05;;;;;;;19.87;15.30;;;;;;;17.88;43.69;98552.38;4904503;29;20292;-82
2022/03/26 09:13:32;;;;;;;21.53;16.10;;;;;;;16.78;43.46;98351.69;4897815;29;20702;-81
2022/03/26 09:15:59;;;;;;;24.30;15.43;;;;;;;17.02;43.46;98392.09;4880088;29;20225;-81
2022/03/26 09:18:26;;;;;;;20.77;15.73;;;;;;;18.38;43.51;98625.00;4888108;29;20621;-81
2022/03/26 09:20:53;;;;;;;20.60;14.80;;;;;;;17.87;44.03;98543.91;4911983;29;20241;-81
2022/03/26 09:23:19;;;;;;;19.37;14.93;;;;;;;17.71;43.94;98510.69;4909091;29;20295;-80
2022/03/26 09:25:46;;;;;;;19.77;14.80;;;;;;;17.82;43.68;98529.13;4889608;29;20209;-79
2022/03/26 09:28:13;;;;;;;17.17;14.10;;;;;;;18.11;43.52;98578.41;4930688;23;20245;-82
2022/03/26 09:30:39;;;;;;;18.07;13.13;;;;;;;18.24;43.60;98611.41;4907751;29;21047;-85
2022/03/26 09:33:08;;;;;;;18.63;14.23;;;;;;;18.34;43.72;98617.06;4932365;28;20195;-92
2022/03/26 09:35:35;;;;;;;18.60;14.07;;;;;;;16.73;43.77;98353.94;4959847;23;20231;-91
2022/03/26 09:38:04;;;;;;;20.67;13.60;;;;;;;16.26;43.80;98253.72;4926468;29;20201;-90
2022/03/26 09:40:31;;;;;;;20.60;14.13;;;;;;;18.30;43.54;98617.66;4913541;28;20209;-92
2022/03/26 09:42:58;;;;;;;20.63;14.43;;;;;;;15.14;43.72;98067.53;4928575;28;20184;-92
2022/03/26 09:45:26;;;;;;;25.30;16.60;;;;;;;16.60;42.69;98331.13;4925732;29;20193;-93
2022/03/26 09:47:54;;;;;;;24.33;17.73;;;;;;;15.91;42.12;98211.00;4925540;29;20199;-92
2022/03/26 09:50:21;;;;;;;32.37;20.60;;;;;;;17.76;40.26;98514.41;4928007;29;20180;-89
2022/03/26 09:52:49;;;;;;;30.90;21.23;;;;;;;17.84;39.90;98527.56;4911071;29;20221;-91
2022/03/26 09:55:17;;;;;;;35.17;22.13;;;;;;;16.68;39.90;98322.31;4904204;29;20205;-82
2022/03/26 09:57:44;;;;;;;31.87;21.53;;;;;;;18.00;40.22;98548.91;4912379;29;20222;-82
2022/03/26 10:00:11;;;;;;;31.33;22.77;;;;;;;18.15;40.16;98575.25;4914846;29;20316;-84
2022/03/26 10:02:37;;;;;;;31.40;22.43;;;;;;;18.13;40.68;98568.34;4902221;29;20212;-85
2022/03/26 10:05:05;;;;;;;32.57;21.63;;;;;;;18.40;40.93;98613.25;4900181;29;20296;-83
2022/03/26 10:07:32;;;;;;;27.00;20.60;;;;;;;18.21;41.22;98577.31;4917124;29;20643;-83
2022/03/26 10:09:58;;;;;;;30.13;21.10;;;;;;;18.11;41.13;98558.06;4895988;29;20256;-83
2022/03/26 10:12:26;;;;;;;30.00;21.57;;;;;;;18.04;41.74;98543.25;4926487;29;20224;-88
2022/03/26 10:15:00;;;;;;;29.73;22.10;;;;;;;18.13;42.20;98548.88;4911990;29;20205;-82
2022/03/26 10:17:31;;;;;;;35.00;19.73;;;;;;;18.25;42.37;98563.97;4910720;29;20316;-82
2022/03/26 10:19:59;;;;;;;27.03;18.43;;;;;;;18.46;42.46;98592.34;4888864;29;20304;-82
2022/03/26 10:22:32;;;;;;;25.50;16.83;;;;;;;18.36;42.97;98570.56;4931213;29;20639;-84
2022/03/26 10:25:10;;;;;;;21.93;15.10;;;;;;;18.24;42.70;98550.34;4907011;29;20292;-83
2022/03/26 10:27:41;;;;;;;20.10;15.50;;;;;;;18.12;42.70;98525.88;4897979;29;20213;-83
2022/03/26 10:30:11;;;;;;;19.70;14.77;;;;;;;18.13;43.02;98546.31;4896846;29;20236;-88
2022/03/26 10:32:39;;;;;;;17.33;13.63;;;;;;;18.27;43.06;98552.22;4925458;29;20205;-89
2022/03/26 10:35:20;;;;;;;18.73;13.33;;;;;;;17.68;43.32;98451.19;4922761;29;20209;-90
2022/03/26 10:37:51;;;;;;;14.77;12.70;;;;;;;16.64;43.14;98267.06;4927213;29;20676;-90
2022/03/26 10:40:20;;;;;;;17.97;13.23;;;;;;;18.50;43.06;98584.97;4927021;29;20240;-89
2022/03/26 10:43:01;;;;;;;15.33;11.97;;;;;;;17.93;43.26;98515.41;4921528;29;20214;-89
2022/03/26 10:45:29;;;;;;;16.23;12.13;;;;;;;17.19;42.91;98383.84;4925704;29;20213;-88
2022/03/26 10:47:57;;;;;;;15.23;11.73;;;;;;;16.73;42.86;98293.03;4924570;29;20209;-88
2022/03/26 10:50:25;;;;;;;15.63;12.23;;;;;;;17.83;43.16;98465.66;4920593;29;20210;-90
2022/03/26 10:52:54;;;;;;;16.80;12.07;;;;;;;17.76;43.10;98442.31;4937858;29;20205;-87
2022/03/26 10:55:21;;;;;;;15.80;11.60;;;;;;;17.88;42.87;98473.56;4920348;29;20197;-89
2022/03/26 10:57:48;;;;;;;17.57;11.40;;;;;;;17.62;43.38;98415.25;4924797;29;20486;-89
2022/03/26 11:00:17;;;;;;;16.30;11.63;;;;;;;18.01;43.23;98504.91;4909259;29;20236;-87
2022/03/26 11:02:44;;;;;;;16.80;11.53;;;;;;;17.21;43.48;98358.53;4924727;29;20256;-88
2022/03/26 11:05:11;;;;;;;15.80;11.03;;;;;;;18.09;43.51;98507.91;4917895;29;20220;-89
2022/03/26 11:07:41;;;;;;;14.00;11.53;;;;;;;16.90;43.02;98294.03;4908061;29;20201;-89
2022/03/26 11:10:12;;;;;;;14.97;11.80;;;;;;;17.51;42.92;98386.66;4925481;29;20229;-90
2022/03/26 11:12:44;;;;;;;14.00;11.77;;;;;;;16.84;42.58;98278.44;4925298;29;20238;-89
2022/03/26 11:15:17;;;;;;;15.70;11.50;;;;;;;17.21;43.17;98338.22;4925229;29;20209;-90
2022/03/26 11:17:56;;;;;;;16.40;12.13;;;;;;;18.59;43.30;98565.13;4922345;29;20229;-89
2022/03/26 11:20:41;;;;;;;14.13;11.30;;;;;;;18.61;43.48;98565.22;4938105;29;20212;-90
2022/03/26 11:23:26;;;;;;;16.63;11.37;;;;;;;18.63;43.43;98556.03;4927833;29;20272;-89
2022/03/26 11:26:05;;;;;;;13.53;10.83;;;;;;;18.64;43.46;98556.09;4923984;29;20614;-88
2022/03/26 11:28:58;;;;;;;14.63;11.97;;;;;;;17.42;43.27;98362.34;4924720;29;20229;-89
2022/03/26 11:31:44;;;;;;;13.80;11.03;;;;;;;16.77;43.40;98218.81;4924714;29;20217;-90
2022/03/26 11:34:11;;;;;;;12.90;10.93;;;;;;;17.39;43.64;98367.25;4908052;29;20200;-89